• Join FlightAware (Why Join?)
  • Login
  • US Flag 
12:31PM EDT


 

Airport Tracker/Info


-or-


 

Live Flight TrackerFlight Track Log ✈ SLI2615 ✈ 21-Apr-2013 ✈ MMTO / TLC - MMMY / MTY

Flight Track Log - Related Links

Times and Time Zones

All times are in EDT time to prevent confusion due to time zone crossing. See the SLI2615 flight status page for this flight to view local times or setup timezone preferences in your user account.

Time Position Orientation Groundspeed Altitude Reporting Facility
EDT Latitude Longitude Course Direction KTS MPH feet Rate Location/Type
02:13PM 21.1897 -99.7165 356° North  Level Estimated
02:14PM 21.2702 -99.7232 356° North  Level Estimated
02:15PM 21.3508 -99.7298 356° North  Level Estimated
02:16PM 21.4313 -99.7364 356° North  Level Estimated
02:17PM 21.5119 -99.7431 356° North  Level Estimated
02:18PM 21.5924 -99.7497 356° North  Level Estimated
02:19PM 21.6730 -99.7564 356° North  Level Estimated
02:20PM 21.7535 -99.7631 356° North  Level Estimated
02:21PM 21.8340 -99.7697 356° North  Level Estimated
02:22PM 21.9146 -99.7764 356° North  Level Estimated
02:23PM 21.9951 -99.7831 356° North  Level Estimated
02:24PM 22.0757 -99.7898 356° North  Level Estimated
02:25PM 22.1562 -99.7965 356° North  Level Estimated
02:26PM 22.2367 -99.8033 356° North  Level Estimated
02:27PM 22.3173 -99.8100 356° North  Level Estimated
02:28PM 22.3978 -99.8167 356° North  Level Estimated
02:29PM 22.4784 -99.8234 356° North  Level Estimated
02:30PM 22.5589 -99.8302 356° North  Level Estimated
02:31PM 22.6394 -99.8370 356° North  Level Estimated
02:32PM 22.7200 -99.8437 356° North  Level Estimated
02:33PM 22.8005 -99.8505 356° North  Level Estimated
02:34PM 22.8811 -99.8573 356° North  Level Estimated
02:35PM 22.9616 -99.8641 356° North  Level Estimated
02:36PM 23.0421 -99.8708 356° North  Level Estimated
02:37PM 23.1227 -99.8776 356° North  Level Estimated
02:38PM 23.2032 -99.8845 356° North  Level Estimated
02:39PM 23.2838 -99.8913 356° North  Level Estimated
02:40PM 23.3643 -99.8981 356° North  Level Estimated
02:41PM 23.4448 -99.9050 356° North  Level Estimated
02:42PM 23.5254 -99.9118 356° North  Level Estimated
02:43PM 23.6059 -99.9186 356° North  Level Estimated
02:44PM 23.6865 -99.9255 356° North  Level Estimated
02:45PM 23.7670 -99.9324 356° North  Level Estimated
02:46PM 23.8475 -99.9393 356° North  Level Estimated
02:47PM 23.9281 -99.9462 356° North  Level Estimated
02:48PM 24.0086 -99.9530 356° North  Level Estimated
02:49PM 24.0892 -99.9600 356° North  Level Estimated
02:50PM 24.1697 -99.9669 356° North  Level Estimated
02:51PM 24.2502 -99.9738 356° North  Level Estimated
02:52PM 24.3308 -99.9807 356° North  Level Estimated
02:53PM 24.4113 -99.9877 356° North  Level Estimated
02:54PM 24.4918 -99.9946 356° North  Level Estimated
02:55PM 24.5724 -100.0016 356° North  Level Estimated
02:56PM 24.6529 -100.0085 356° North  Level Estimated
02:57PM 24.7334 -100.0155 356° North  Level Estimated
02:58PM 24.8139 -100.0225 355° North  Level Estimated
02:59PM 24.8945 -100.0295 355° North  Level Estimated
03:00PM 24.9750 -100.0365 355° North  Level Estimated
03:01PM 25.0555 -100.0435 355° North  Level Estimated
03:02PM 25.1361 -100.0505 355° North  Level Estimated
03:03PM 25.2166 -100.0575 355° North  Level Estimated
03:04PM 25.2971 -100.0646 355° North  Level Estimated
03:05PM 25.3777 -100.0716 355° North  Level Estimated
03:06PM 25.4582 -100.0787 355° North  Level Estimated
03:07PM 25.5387 -100.0858 355° North  Level Estimated
03:08PM 25.6192 -100.0928 355° North  Level Estimated
03:09PM 25.6998 -100.0999 355° North  Level Estimated
03:10PM 25.7785 -100.1069 355° North  Level Estimated
03:11PM 25.7785 -100.1069 119° Southeast  Level Estimated